createdAt,value
2017-08-12T00:01:38.752Z,15.08
2017-08-12T00:04:06.509Z,14.93
2017-08-12T00:06:34.357Z,15.03
2017-08-12T00:09:02.108Z,14.97
2017-08-12T00:11:29.868Z,14.90
2017-08-12T00:13:57.631Z,14.78
2017-08-12T00:16:25.357Z,14.83
2017-08-12T00:18:53.134Z,14.86
2017-08-12T00:21:20.853Z,14.99
2017-08-12T00:23:48.628Z,15.00
2017-08-12T00:26:16.435Z,14.93
2017-08-12T00:28:44.189Z,14.75
2017-08-12T00:31:11.897Z,14.79
2017-08-12T00:33:39.598Z,14.93
2017-08-12T00:36:07.326Z,14.94
2017-08-12T00:38:35.101Z,14.87
2017-08-12T00:41:02.810Z,14.89
2017-08-12T00:43:30.573Z,14.86
2017-08-12T00:45:58.278Z,14.89
2017-08-12T00:48:26.036Z,14.91
2017-08-12T00:50:54.027Z,14.88
2017-08-12T00:53:21.737Z,14.83
2017-08-12T00:55:49.505Z,14.77
2017-08-12T00:58:17.324Z,14.66
2017-08-12T01:00:45.091Z,14.51
2017-08-12T01:03:12.837Z,14.55
2017-08-12T01:05:40.535Z,14.49
2017-08-12T01:08:08.283Z,14.57
2017-08-12T01:10:36.113Z,14.53
2017-08-12T01:13:03.961Z,14.52
2017-08-12T01:15:31.654Z,14.49
2017-08-12T01:17:59.421Z,14.42
2017-08-12T01:20:27.132Z,14.38
2017-08-12T01:22:55.140Z,14.28
2017-08-12T01:25:22.852Z,14.28
2017-08-12T01:27:50.586Z,14.25
2017-08-12T01:30:18.339Z,14.15
2017-08-12T01:32:46.030Z,14.15
2017-08-12T01:35:13.703Z,14.04
2017-08-12T01:37:41.628Z,14.00
2017-08-12T01:40:09.321Z,14.04
2017-08-12T01:42:37.035Z,14.00
2017-08-12T01:45:04.830Z,13.93
2017-08-12T01:47:32.554Z,13.79
2017-08-12T01:50:00.284Z,13.82
2017-08-12T01:52:28.105Z,13.79
2017-08-12T01:54:55.865Z,13.68
2017-08-12T01:57:23.616Z,13.73
2017-08-12T01:59:51.301Z,13.76
2017-08-12T02:02:18.989Z,13.77
2017-08-12T02:04:46.776Z,13.86
2017-08-12T02:07:14.493Z,13.86
2017-08-12T02:09:42.280Z,13.83
2017-08-12T02:12:10.023Z,13.80
2017-08-12T02:14:37.781Z,13.94
2017-08-12T02:17:05.540Z,13.91
2017-08-12T02:19:33.298Z,13.86
2017-08-12T02:22:01.003Z,13.90
2017-08-12T02:24:28.700Z,13.90
2017-08-12T02:26:56.467Z,13.90
2017-08-12T02:29:24.183Z,13.89
2017-08-12T02:31:51.931Z,13.86
2017-08-12T02:34:19.828Z,13.87
2017-08-12T02:36:47.533Z,13.94
2017-08-12T02:39:15.252Z,13.96
2017-08-12T02:41:43.009Z,13.99
2017-08-12T02:44:10.712Z,13.87
2017-08-12T02:46:38.593Z,13.85
2017-08-12T02:49:06.309Z,13.91
2017-08-12T02:51:34.010Z,13.95
2017-08-12T02:54:01.739Z,13.93
2017-08-12T02:56:29.520Z,13.97
2017-08-12T02:58:57.242Z,14.03
2017-08-12T03:01:24.989Z,14.08
2017-08-12T03:03:52.725Z,13.97
2017-08-12T03:06:20.493Z,13.92
2017-08-12T03:08:48.195Z,13.92
2017-08-12T03:11:15.973Z,13.90
2017-08-12T03:13:43.869Z,13.90
2017-08-12T03:16:11.629Z,13.90
2017-08-12T03:18:39.393Z,13.86
2017-08-12T03:21:07.226Z,13.89
2017-08-12T03:23:34.979Z,13.97
2017-08-12T03:26:02.783Z,13.89
2017-08-12T03:28:30.589Z,13.84
2017-08-12T03:30:58.264Z,13.86
2017-08-12T03:33:26.046Z,13.77
2017-08-12T03:35:53.763Z,13.79
2017-08-12T03:38:21.483Z,13.73
2017-08-12T03:40:49.213Z,13.62
2017-08-12T03:43:16.957Z,13.72
2017-08-12T03:45:44.680Z,13.76
2017-08-12T03:48:12.591Z,13.81
2017-08-12T03:50:40.417Z,13.71
2017-08-12T03:53:08.165Z,13.80
2017-08-12T03:55:35.828Z,13.71
2017-08-12T03:58:03.581Z,13.76
2017-08-12T04:00:31.264Z,13.82
2017-08-12T04:02:58.953Z,13.70
2017-08-12T04:05:26.690Z,13.77
2017-08-12T04:07:54.373Z,13.85
2017-08-12T04:10:22.122Z,13.86
2017-08-12T04:12:49.923Z,13.92
2017-08-12T04:15:17.696Z,13.92
2017-08-12T04:17:45.396Z,13.77
2017-08-12T04:20:13.169Z,13.78
2017-08-12T04:22:40.966Z,13.77
2017-08-12T04:25:08.690Z,13.81
2017-08-12T04:27:36.390Z,13.83
2017-08-12T04:30:04.693Z,13.84
2017-08-12T04:32:32.385Z,13.90
2017-08-12T04:35:01.032Z,13.85
2017-08-12T04:37:28.721Z,13.86
2017-08-12T04:39:56.466Z,13.93
2017-08-12T04:42:24.198Z,13.96
2017-08-12T04:44:51.889Z,14.03
2017-08-12T04:47:19.591Z,14.07
2017-08-12T04:49:47.389Z,14.10
2017-08-12T04:52:15.086Z,14.09
2017-08-12T04:54:42.818Z,14.15
2017-08-12T04:57:10.519Z,14.23
2017-08-12T04:59:38.317Z,14.34
2017-08-12T05:02:06.103Z,14.37
2017-08-12T05:04:33.785Z,14.51
2017-08-12T05:07:01.592Z,14.46
2017-08-12T05:09:29.304Z,14.49
2017-08-12T05:11:57.065Z,14.46
2017-08-12T05:14:24.761Z,14.33
2017-08-12T05:16:52.539Z,14.40
2017-08-12T05:19:20.347Z,14.51
2017-08-12T05:21:48.126Z,14.61
2017-08-12T05:24:15.832Z,14.68
2017-08-12T05:26:43.592Z,14.60
2017-08-12T05:29:11.374Z,14.63
2017-08-12T05:31:39.921Z,14.75
2017-08-12T05:34:07.638Z,14.81
2017-08-12T05:36:35.413Z,14.86
2017-08-12T05:39:03.169Z,14.79
2017-08-12T05:41:30.888Z,14.87
2017-08-12T05:43:58.639Z,15.00
2017-08-12T05:46:26.344Z,15.11
2017-08-12T05:48:54.158Z,15.19
2017-08-12T05:51:22.007Z,15.24
2017-08-12T05:53:49.772Z,15.19
2017-08-12T05:56:17.498Z,15.07
2017-08-12T05:58:45.206Z,14.99
2017-08-12T06:01:12.974Z,15.03
2017-08-12T06:03:40.703Z,15.03
2017-08-12T06:06:08.468Z,15.06
2017-08-12T06:08:36.179Z,15.19
2017-08-12T06:11:03.933Z,15.07
2017-08-12T06:13:31.675Z,15.03
2017-08-12T06:15:59.443Z,15.05
2017-08-12T06:18:27.185Z,15.05
2017-08-12T06:20:55.028Z,15.08
2017-08-12T06:23:22.782Z,15.05
2017-08-12T06:25:50.538Z,15.11
2017-08-12T06:28:18.374Z,15.21
2017-08-12T06:30:46.149Z,15.29
2017-08-12T06:33:13.881Z,15.34
2017-08-12T06:35:41.657Z,15.41
2017-08-12T06:38:09.496Z,15.44
2017-08-12T06:40:37.280Z,15.40
2017-08-12T06:43:04.980Z,15.39
2017-08-12T06:45:33.369Z,15.42
2017-08-12T06:48:01.132Z,15.38
2017-08-12T06:50:28.880Z,15.40
2017-08-12T06:52:56.680Z,15.45
2017-08-12T06:55:24.492Z,15.50
2017-08-12T06:57:52.196Z,15.54
2017-08-12T07:00:19.960Z,15.59
2017-08-12T07:02:47.739Z,15.52
2017-08-12T07:05:15.549Z,15.49
2017-08-12T07:07:43.249Z,15.48
2017-08-12T07:10:10.959Z,15.44
2017-08-12T07:12:38.709Z,15.40
2017-08-12T07:15:06.405Z,15.31
2017-08-12T07:17:34.223Z,15.26
2017-08-12T07:20:01.944Z,15.27
2017-08-12T07:22:29.675Z,15.21
2017-08-12T07:24:57.444Z,15.25
2017-08-12T07:27:25.152Z,15.29
2017-08-12T07:29:52.963Z,15.38
2017-08-12T07:32:20.704Z,15.43
2017-08-12T07:34:48.415Z,15.53
2017-08-12T07:37:17.258Z,15.68
2017-08-12T07:39:45.012Z,15.64
2017-08-12T07:42:12.739Z,15.80
2017-08-12T07:44:40.662Z,15.90
2017-08-12T07:47:08.418Z,16.11
2017-08-12T07:49:36.165Z,16.25
2017-08-12T07:52:03.912Z,16.40
2017-08-12T07:54:31.674Z,16.24
2017-08-12T07:56:59.422Z,16.30
2017-08-12T07:59:27.206Z,16.40
2017-08-12T08:01:54.922Z,16.52
2017-08-12T08:04:22.643Z,16.42
2017-08-12T08:06:50.410Z,16.48
2017-08-12T08:09:18.134Z,16.39
2017-08-12T08:11:45.853Z,16.47
2017-08-12T08:14:13.596Z,16.29
2017-08-12T08:16:41.311Z,16.23
2017-08-12T08:19:09.076Z,16.12
2017-08-12T08:21:36.789Z,16.07
2017-08-12T08:24:04.490Z,16.05
2017-08-12T08:26:32.296Z,16.10
2017-08-12T08:29:00.025Z,16.12
2017-08-12T08:31:27.872Z,16.06
2017-08-12T08:33:55.585Z,15.98
2017-08-12T08:36:23.291Z,16.14
2017-08-12T08:38:51.055Z,16.07
2017-08-12T08:41:18.770Z,16.12
2017-08-12T08:43:46.497Z,15.94
2017-08-12T08:46:14.281Z,15.89
2017-08-12T08:48:41.981Z,16.06
2017-08-12T08:51:09.758Z,16.02
2017-08-12T08:53:37.532Z,16.01
2017-08-12T08:56:05.369Z,15.87
2017-08-12T08:58:33.111Z,15.91
2017-08-12T09:01:00.876Z,15.97
2017-08-12T09:03:28.628Z,15.82
2017-08-12T09:05:56.316Z,16.13
2017-08-12T09:08:24.120Z,16.03
2017-08-12T09:10:51.892Z,15.97
2017-08-12T09:13:19.644Z,15.93
2017-08-12T09:15:47.379Z,16.11
2017-08-12T09:18:16.667Z,16.36
2017-08-12T09:20:44.432Z,16.27
2017-08-12T09:23:12.141Z,16.62
2017-08-12T09:25:39.946Z,16.66
2017-08-12T09:28:07.633Z,16.67
2017-08-12T09:30:35.424Z,16.66
2017-08-12T09:33:03.263Z,16.99
2017-08-12T09:35:30.982Z,17.10
2017-08-12T09:37:58.767Z,17.29
2017-08-12T09:40:26.454Z,17.49
2017-08-12T09:42:54.182Z,17.96
2017-08-12T09:45:21.895Z,17.99
2017-08-12T09:47:49.590Z,18.07
2017-08-12T09:50:17.446Z,17.91
2017-08-12T09:52:45.228Z,17.85
2017-08-12T09:55:12.938Z,18.17
2017-08-12T09:57:40.722Z,18.33
2017-08-12T10:00:08.482Z,17.74
2017-08-12T10:02:36.248Z,18.00
2017-08-12T10:05:04.019Z,17.83
2017-08-12T10:07:31.783Z,17.77
2017-08-12T10:09:59.511Z,18.01
2017-08-12T10:12:27.280Z,18.03
2017-08-12T10:14:55.072Z,18.03
2017-08-12T10:17:22.763Z,17.86
2017-08-12T10:19:50.522Z,17.88
2017-08-12T10:22:18.285Z,17.71
2017-08-12T10:24:46.238Z,17.92
2017-08-12T10:27:13.939Z,17.93
2017-08-12T10:29:41.731Z,17.76
2017-08-12T10:32:09.441Z,17.78
2017-08-12T10:34:37.131Z,17.82
2017-08-12T10:37:04.900Z,17.89
2017-08-12T10:39:32.590Z,17.88
2017-08-12T10:42:00.287Z,17.80
2017-08-12T10:44:28.011Z,17.79
2017-08-12T10:46:55.788Z,17.93
2017-08-12T10:49:23.512Z,18.06
2017-08-12T10:51:51.283Z,18.03
2017-08-12T10:54:19.000Z,17.87
2017-08-12T10:56:46.700Z,17.79
2017-08-12T10:59:14.459Z,17.89
2017-08-12T11:01:42.172Z,17.86
2017-08-12T11:04:09.951Z,17.98
2017-08-12T11:06:37.762Z,18.04
2017-08-12T11:09:05.547Z,18.22
2017-08-12T11:11:33.292Z,18.18
2017-08-12T11:14:01.013Z,18.44
2017-08-12T11:16:28.727Z,18.54
2017-08-12T11:18:56.474Z,18.63
2017-08-12T11:21:24.323Z,18.28
2017-08-12T11:23:52.107Z,18.46
2017-08-12T11:26:19.859Z,18.46
2017-08-12T11:28:47.609Z,18.54
2017-08-12T11:31:15.395Z,18.50
2017-08-12T11:33:44.208Z,18.72
2017-08-12T11:36:11.930Z,18.75
2017-08-12T11:38:40.679Z,18.72
2017-08-12T11:41:08.452Z,18.68
2017-08-12T11:43:36.219Z,18.69
2017-08-12T11:46:03.956Z,18.29
2017-08-12T11:48:31.751Z,18.43
2017-08-12T11:50:59.569Z,18.44
2017-08-12T11:53:27.354Z,18.35
2017-08-12T11:55:55.137Z,18.41
2017-08-12T11:58:23.046Z,18.40
2017-08-12T12:03:18.709Z,18.23
2017-08-12T12:05:46.516Z,18.06
2017-08-12T12:08:14.332Z,18.23
2017-08-12T12:10:42.076Z,18.31
2017-08-12T12:13:09.960Z,18.19
2017-08-12T12:15:37.700Z,18.29
2017-08-12T12:18:05.387Z,18.27
2017-08-12T12:20:33.211Z,18.22
2017-08-12T12:23:00.965Z,18.12
2017-08-12T12:25:28.794Z,18.07
2017-08-12T12:27:56.906Z,18.02
2017-08-12T12:30:24.677Z,18.09
2017-08-12T12:32:52.572Z,18.10
2017-08-12T12:35:20.400Z,18.16
2017-08-12T12:37:48.252Z,18.19
2017-08-12T12:40:15.967Z,18.21
2017-08-12T12:42:43.700Z,18.18
2017-08-12T12:45:11.452Z,18.38
2017-08-12T12:47:39.215Z,18.45
2017-08-12T12:50:06.984Z,18.50
2017-08-12T12:52:34.697Z,18.59
2017-08-12T12:55:02.478Z,18.65
2017-08-12T12:57:30.267Z,18.62
2017-08-12T12:59:58.002Z,18.66
2017-08-12T13:02:25.791Z,18.69
2017-08-12T13:04:53.566Z,18.72
2017-08-12T13:07:21.413Z,18.72
2017-08-12T13:09:49.185Z,18.73
2017-08-12T13:12:17.095Z,18.71
2017-08-12T13:14:44.882Z,18.57
2017-08-12T13:17:12.645Z,18.58
2017-08-12T13:19:40.450Z,18.62
2017-08-12T13:22:08.205Z,18.70
2017-08-12T13:24:35.960Z,18.74
2017-08-12T13:27:03.676Z,18.71
2017-08-12T13:29:31.454Z,18.73
2017-08-12T13:31:59.186Z,18.82
2017-08-12T13:34:26.900Z,18.91
2017-08-12T13:36:54.663Z,19.09
2017-08-12T13:39:22.795Z,18.91
2017-08-12T13:41:50.509Z,19.01
2017-08-12T13:44:18.277Z,19.05
2017-08-12T13:46:45.993Z,19.10
2017-08-12T13:49:13.740Z,19.00
2017-08-12T13:51:41.608Z,18.94
2017-08-12T13:54:09.317Z,18.88
2017-08-12T13:56:37.070Z,18.80
2017-08-12T13:59:04.797Z,18.72
2017-08-12T14:01:32.721Z,18.65
2017-08-12T14:04:00.486Z,18.59
2017-08-12T14:06:28.209Z,18.67
2017-08-12T14:08:56.002Z,18.65
2017-08-12T14:11:23.765Z,18.53
2017-08-12T14:13:51.500Z,18.56
2017-08-12T14:16:19.370Z,18.41
2017-08-12T14:18:47.078Z,18.30
2017-08-12T14:21:14.843Z,18.45
2017-08-12T14:23:42.596Z,18.24
2017-08-12T14:26:10.368Z,18.12
2017-08-12T14:28:38.188Z,18.02
2017-08-12T14:31:05.901Z,17.88
2017-08-12T14:33:33.663Z,17.84
2017-08-12T14:36:01.468Z,17.96
2017-08-12T14:38:30.343Z,18.08
2017-08-12T14:40:58.129Z,17.93
2017-08-12T14:43:25.885Z,17.98
2017-08-12T14:45:53.669Z,18.01
2017-08-12T14:48:21.396Z,18.06
2017-08-12T14:50:49.257Z,18.12
2017-08-12T14:53:16.965Z,18.13
2017-08-12T14:55:44.799Z,18.29
2017-08-12T14:58:12.599Z,18.31
2017-08-12T15:00:40.340Z,18.37
2017-08-12T15:03:08.082Z,18.46
2017-08-12T15:05:35.913Z,18.40
2017-08-12T15:08:03.726Z,18.18
2017-08-12T15:10:31.488Z,18.28
2017-08-12T15:12:59.260Z,18.31
2017-08-12T15:15:28.300Z,18.40
2017-08-12T15:17:56.065Z,18.33
2017-08-12T15:20:24.561Z,18.45
2017-08-12T15:22:52.411Z,18.51
2017-08-12T15:25:20.178Z,18.35
2017-08-12T15:27:47.937Z,18.37
2017-08-12T15:30:15.838Z,18.21
2017-08-12T15:32:43.613Z,18.21
2017-08-12T15:35:11.366Z,18.12
2017-08-12T15:37:39.148Z,18.23
2017-08-12T15:40:06.900Z,18.20
2017-08-12T15:42:34.729Z,18.22
2017-08-12T15:45:02.507Z,18.22
2017-08-12T15:47:30.324Z,18.24
2017-08-12T15:49:58.131Z,18.26
2017-08-12T15:52:25.903Z,18.25
2017-08-12T15:54:53.617Z,18.30
2017-08-12T15:57:21.415Z,18.44
2017-08-12T15:59:49.233Z,18.38
2017-08-12T16:02:17.092Z,18.35
2017-08-12T16:04:44.873Z,18.22
2017-08-12T16:07:12.661Z,18.06
2017-08-12T16:09:40.450Z,17.79
2017-08-12T16:12:08.232Z,17.73
2017-08-12T16:14:36.035Z,18.03
2017-08-12T16:17:03.790Z,18.02
2017-08-12T16:19:31.579Z,17.94
2017-08-12T16:21:59.430Z,17.97
2017-08-12T16:24:27.205Z,18.07
2017-08-12T16:26:54.920Z,18.07
2017-08-12T16:29:22.765Z,17.96
2017-08-12T16:31:50.564Z,17.86
2017-08-12T16:34:18.327Z,17.78
2017-08-12T16:36:46.937Z,17.71
2017-08-12T16:39:14.794Z,17.63
2017-08-12T16:41:42.576Z,17.72
2017-08-12T16:44:10.275Z,17.70
2017-08-12T16:46:38.008Z,17.63
2017-08-12T16:49:05.811Z,17.58
2017-08-12T16:51:33.602Z,17.55
2017-08-12T16:54:01.390Z,17.37
2017-08-12T16:56:29.156Z,17.39
2017-08-12T16:58:56.889Z,17.30
2017-08-12T17:01:24.618Z,17.40
2017-08-12T17:03:52.373Z,17.29
2017-08-12T17:06:20.164Z,17.18
2017-08-12T17:08:47.918Z,17.26
2017-08-12T17:11:15.679Z,17.16
2017-08-12T17:13:43.397Z,17.04
2017-08-12T17:16:11.114Z,17.16
2017-08-12T17:18:38.872Z,17.14
2017-08-12T17:21:06.590Z,17.17
2017-08-12T17:23:34.314Z,17.01
2017-08-12T17:26:02.086Z,16.94
2017-08-12T17:28:30.706Z,16.97
2017-08-12T17:30:58.402Z,17.01
2017-08-12T17:33:26.189Z,16.94
2017-08-12T17:35:53.905Z,16.71
2017-08-12T17:38:21.619Z,16.78
2017-08-12T17:40:49.390Z,16.58
2017-08-12T17:43:17.133Z,16.76
2017-08-12T17:45:44.943Z,16.39
2017-08-12T17:48:12.703Z,16.41
2017-08-12T17:50:40.402Z,16.32
2017-08-12T17:53:08.162Z,16.45
2017-08-12T17:55:36.022Z,16.20
2017-08-12T17:58:04.136Z,16.19
2017-08-12T18:00:31.924Z,16.24
2017-08-12T18:02:59.661Z,16.02
2017-08-12T18:05:27.484Z,16.23
2017-08-12T18:07:55.267Z,15.94
2017-08-12T18:10:22.980Z,15.65
2017-08-12T18:12:50.761Z,15.62
2017-08-12T18:15:18.583Z,15.57
2017-08-12T18:17:46.315Z,15.52
2017-08-12T18:20:14.095Z,15.45
2017-08-12T18:22:41.845Z,15.43
2017-08-12T18:25:10.473Z,15.40
2017-08-12T18:27:38.244Z,15.30
2017-08-12T18:30:05.993Z,15.27
2017-08-12T18:32:33.737Z,15.25
2017-08-12T18:35:01.504Z,15.04
2017-08-12T18:37:29.272Z,15.12
2017-08-12T18:39:57.082Z,15.21
2017-08-12T18:42:24.870Z,15.16
2017-08-12T18:44:52.896Z,15.21
2017-08-12T18:47:20.637Z,15.07
2017-08-12T18:49:48.471Z,15.13
2017-08-12T18:52:16.189Z,15.25
2017-08-12T18:54:43.996Z,15.07
2017-08-12T18:57:11.719Z,15.14
2017-08-12T18:59:39.509Z,15.16
2017-08-12T19:02:07.230Z,15.17
2017-08-12T19:04:34.969Z,15.14
2017-08-12T19:07:02.712Z,15.19
2017-08-12T19:09:30.469Z,15.12
2017-08-12T19:11:58.349Z,15.15
2017-08-12T19:14:26.096Z,15.06
2017-08-12T19:16:53.836Z,15.13
2017-08-12T19:19:21.559Z,15.02
2017-08-12T19:21:49.266Z,14.99
2017-08-12T19:24:17.004Z,14.99
2017-08-12T19:26:44.765Z,15.03
2017-08-12T19:29:12.546Z,14.98
2017-08-12T19:31:40.284Z,15.00
2017-08-12T19:34:08.156Z,14.97
2017-08-12T19:36:35.914Z,14.97
2017-08-12T19:39:03.898Z,14.94
2017-08-12T19:41:31.703Z,14.91
2017-08-12T19:43:59.413Z,14.89
2017-08-12T19:46:27.187Z,14.90
2017-08-12T19:48:54.987Z,14.87
2017-08-12T19:51:22.676Z,14.90
2017-08-12T19:53:50.460Z,14.82
2017-08-12T19:56:18.196Z,14.85
2017-08-12T19:58:46.012Z,14.86
2017-08-12T20:01:13.786Z,14.88
2017-08-12T20:03:41.553Z,14.89
2017-08-12T20:06:09.330Z,14.86
2017-08-12T20:08:37.041Z,14.89
2017-08-12T20:11:04.964Z,14.84
2017-08-12T20:13:32.751Z,14.80
2017-08-12T20:16:00.536Z,14.79
2017-08-12T20:18:28.349Z,14.79
2017-08-12T20:20:56.753Z,14.79
2017-08-12T20:23:24.536Z,14.77
2017-08-12T20:25:52.297Z,14.72
2017-08-12T20:28:20.935Z,14.71
2017-08-12T20:30:48.654Z,14.73
2017-08-12T20:33:16.449Z,14.70
2017-08-12T20:35:44.151Z,14.78
2017-08-12T20:38:14.082Z,14.72
2017-08-12T20:40:41.844Z,14.70
2017-08-12T20:43:09.588Z,14.60
2017-08-12T20:45:37.369Z,14.64
2017-08-12T20:48:05.184Z,14.63
2017-08-12T20:50:32.908Z,14.65
2017-08-12T20:53:00.617Z,14.58
2017-08-12T20:55:28.403Z,14.68
2017-08-12T20:57:57.248Z,14.68
2017-08-12T21:00:24.994Z,14.57
2017-08-12T21:02:52.752Z,14.57
2017-08-12T21:05:20.465Z,14.59
2017-08-12T21:07:48.177Z,14.41
2017-08-12T21:10:16.028Z,14.59
2017-08-12T21:12:43.784Z,14.93
2017-08-12T21:15:11.597Z,14.78
2017-08-12T21:17:39.282Z,14.79
2017-08-12T21:20:07.137Z,15.04
2017-08-12T21:22:34.919Z,15.21
2017-08-12T21:25:02.664Z,14.93
2017-08-12T21:27:30.366Z,14.84
2017-08-12T21:29:58.103Z,14.67
2017-08-12T21:32:25.829Z,14.64
2017-08-12T21:34:53.600Z,14.56
2017-08-12T21:37:21.360Z,14.47
2017-08-12T21:39:49.069Z,14.44
2017-08-12T21:42:16.842Z,14.43
2017-08-12T21:44:44.567Z,14.39
2017-08-12T21:47:12.328Z,14.44
2017-08-12T21:49:40.093Z,14.46
2017-08-12T21:52:07.883Z,14.57
2017-08-12T21:54:35.641Z,14.40
2017-08-12T21:57:03.380Z,14.41
2017-08-12T21:59:31.154Z,14.40
2017-08-12T22:01:58.930Z,14.46
2017-08-12T22:04:26.700Z,14.48
2017-08-12T22:06:54.428Z,14.57
2017-08-12T22:09:22.247Z,14.53
2017-08-12T22:11:50.008Z,14.53
2017-08-12T22:14:17.717Z,14.51
2017-08-12T22:16:45.505Z,14.63
2017-08-12T22:19:13.275Z,14.58
2017-08-12T22:21:41.004Z,14.57
2017-08-12T22:24:08.770Z,14.63
2017-08-12T22:26:36.542Z,14.61
2017-08-12T22:29:04.256Z,14.60
2017-08-12T22:31:31.987Z,14.74
2017-08-12T22:33:59.759Z,14.81
2017-08-12T22:36:27.468Z,14.82
2017-08-12T22:38:55.255Z,14.78
2017-08-12T22:41:22.979Z,14.67
2017-08-12T22:43:50.771Z,14.58
2017-08-12T22:46:18.497Z,14.68
2017-08-12T22:48:46.276Z,14.76
2017-08-12T22:51:14.591Z,14.80
2017-08-12T23:02:42.445Z,14.61
2017-08-12T23:05:10.159Z,14.55
2017-08-12T23:07:37.875Z,14.60
2017-08-12T23:10:06.138Z,14.59
2017-08-12T23:12:33.984Z,14.58
2017-08-12T23:15:01.759Z,14.57
2017-08-12T23:17:29.560Z,14.53
2017-08-12T23:19:57.388Z,14.50
2017-08-12T23:22:25.082Z,14.49
2017-08-12T23:24:52.797Z,14.52
2017-08-12T23:27:20.591Z,14.57
2017-08-12T23:29:48.359Z,14.55
2017-08-12T23:32:16.125Z,14.52
2017-08-12T23:34:43.845Z,14.52
2017-08-12T23:37:11.605Z,14.55
2017-08-12T23:39:39.422Z,14.56
2017-08-12T23:42:07.276Z,14.56
2017-08-12T23:44:35.147Z,14.54
2017-08-12T23:47:02.861Z,14.57
2017-08-12T23:49:31.438Z,14.58
2017-08-12T23:51:59.288Z,14.68
2017-08-12T23:54:27.044Z,14.70
2017-08-12T23:56:55.117Z,14.71
2017-08-12T23:59:22.822Z,14.58
